Moland, Minnesota
Current Conditions -  °F | °C
As of 2:14 PM on Monday 24 Nov 2014 (Local Time) from KSYN Reporting Station
Overcast Overcast  
Wind Chill:   Ceiling: 1700
Heat Index: 22°   Visibility: 10mi
Dew Point: 15°   Wind: 20mph
Humidity: 77%   Direction: 290°WNW
Pressure: 29.52"   Gusts: 26mph
Location:  44.2435°N, 92.9583°W
Report Text: KSYN 242014Z AUTO 29017G23KT 10SM OVC017 M06/M09 A2952 RMK AO2 T10581092
Loading
Personal Weather Stations






























Interactive Weather Map New forecast layout! Learn more

10-Day Weather Forecast

Advertisements
Track Severe Weather on mobile